Time;durP1;ratioP1;P1;durP2;ratioP2;P2;SDS_P1;SDS_P2;PMS_P1;PMS_P2;Temp;Humidity;BMP_temperature;BMP_pressure;BME280_temperature;BME280_humidity;BME280_pressure;Samples;Min_cycle;Max_cycle;Signal;HPM_P1;HPM_P2
2022/10/09 00:00:26;;;;;;;2.45;1.35;;;9.00;99.90;;;;;;20669490;28;20034;-79
2022/10/09 00:10:28;;;;;;;3.88;1.85;;;8.80;99.90;;;;;;20661684;28;20034;-80
2022/10/09 00:20:29;;;;;;;3.90;1.52;;;8.80;99.90;;;;;;20661737;28;20106;-79
2022/10/09 00:30:30;;;;;;;3.90;1.80;;;9.00;99.90;;;;;;20685931;28;20034;-79
2022/10/09 00:40:32;;;;;;;2.67;1.33;;;9.00;99.90;;;;;;20678707;28;20540;-80
2022/10/09 00:50:37;;;;;;;5.03;3.15;;;9.00;99.90;;;;;;20659554;28;20041;-79
2022/10/09 01:00:40;;;;;;;4.85;1.58;;;9.10;99.90;;;;;;20688853;28;20030;-80
2022/10/09 01:10:58;;;;;;;3.95;1.23;;;9.10;99.90;;;;;;20678340;28;20093;-81
2022/10/09 01:21:17;;;;;;;3.70;1.77;;;9.10;99.90;;;;;;20667822;28;20655;-80
2022/10/09 01:31:20;;;;;;;3.15;1.35;;;9.10;99.90;;;;;;20688562;28;20623;-81
2022/10/09 01:41:21;;;;;;;3.33;1.20;;;9.00;99.90;;;;;;20685170;28;20042;-81
2022/10/09 01:51:28;;;;;;;5.70;2.05;;;9.00;99.90;;;;;;20680617;28;20101;-81
2022/10/09 02:01:35;;;;;;;2.63;1.10;;;8.80;99.90;;;;;;20673186;28;20267;-80
2022/10/09 02:11:39;;;;;;;1.23;0.63;;;8.70;99.90;;;;;;20630880;28;20113;-80
2022/10/09 02:22:05;;;;;;;2.17;1.20;;;8.60;99.90;;;;;;20588276;28;20098;-81
2022/10/09 02:42:17;;;;;;;1.58;0.70;;;8.70;99.90;;;;;;20870601;22;20065;-79
2022/10/09 02:52:18;;;;;;;2.03;1.20;;;8.70;99.90;;;;;;20818362;28;20041;-80
2022/10/09 03:02:19;;;;;;;4.28;1.35;;;8.80;99.90;;;;;;20836846;28;20155;-79
2022/10/09 03:12:21;;;;;;;4.55;1.13;;;8.70;99.90;;;;;;20846816;28;20040;-79
2022/10/09 03:22:22;;;;;;;3.05;1.40;;;8.60;99.90;;;;;;20841998;28;20447;-79
2022/10/09 03:32:23;;;;;;;3.33;1.27;;;8.50;99.90;;;;;;20820026;28;20049;-79
2022/10/09 03:42:25;;;;;;;2.08;0.55;;;8.30;99.90;;;;;;20836762;28;20198;-80
2022/10/09 03:52:26;;;;;;;5.25;1.90;;;8.10;99.90;;;;;;20829926;28;20107;-79
2022/10/09 04:02:27;;;;;;;4.00;1.48;;;8.10;99.90;;;;;;20814880;28;20037;-79
2022/10/09 04:12:28;;;;;;;2.92;1.33;;;8.20;99.90;;;;;;20820729;28;20052;-80
2022/10/09 04:22:29;;;;;;;2.53;1.25;;;8.20;99.90;;;;;;20833667;28;20938;-79
2022/10/09 04:32:29;;;;;;;3.35;1.63;;;8.20;99.90;;;;;;20806352;28;20033;-79
2022/10/09 04:42:31;;;;;;;2.35;1.08;;;8.20;99.90;;;;;;20815383;28;20037;-79
2022/10/09 04:52:32;;;;;;;3.78;1.52;;;8.10;99.90;;;;;;20834409;28;20056;-79
2022/10/09 05:02:33;;;;;;;4.80;1.95;;;8.00;99.90;;;;;;20807861;28;20091;-79
2022/10/09 05:12:34;;;;;;;2.45;1.00;;;8.00;99.90;;;;;;20825274;28;20297;-79
2022/10/09 05:22:35;;;;;;;3.47;1.58;;;7.90;99.90;;;;;;20807406;28;20037;-79
2022/10/09 05:32:36;;;;;;;4.18;1.48;;;7.90;99.90;;;;;;20807873;28;20569;-78
2022/10/09 05:42:37;;;;;;;4.22;1.30;;;7.90;99.90;;;;;;20806955;28;20489;-79
2022/10/09 05:52:38;;;;;;;6.75;2.35;;;8.00;99.90;;;;;;20803955;28;20560;-79
2022/10/09 06:02:39;;;;;;;5.13;1.77;;;7.90;99.90;;;;;;20807393;28;20045;-79
2022/10/09 06:12:40;;;;;;;5.68;2.15;;;7.90;99.90;;;;;;20803146;28;20052;-79
2022/10/09 06:22:41;;;;;;;2.88;1.48;;;7.80;99.90;;;;;;20808493;28;20041;-79
2022/10/09 06:32:42;;;;;;;4.90;1.13;;;7.90;99.90;;;;;;20826919;28;20033;-79
2022/10/09 06:42:43;;;;;;;4.65;2.42;;;7.90;99.90;;;;;;20822877;28;20041;-79
2022/10/09 06:52:44;;;;;;;3.22;2.03;;;7.90;99.90;;;;;;20824624;28;20399;-79
2022/10/09 07:02:45;;;;;;;4.15;2.30;;;8.00;99.90;;;;;;20836005;28;20045;-79
2022/10/09 07:12:46;;;;;;;5.25;2.25;;;8.20;99.90;;;;;;20831195;28;20075;-79
2022/10/09 07:22:47;;;;;;;3.92;1.63;;;8.30;99.90;;;;;;20822420;28;20041;-79
2022/10/09 07:32:50;;;;;;;2.75;1.55;;;8.50;99.90;;;;;;20831138;28;20064;-79
2022/10/09 07:42:51;;;;;;;2.45;1.38;;;8.80;99.90;;;;;;20820719;28;20547;-80
2022/10/09 07:52:52;;;;;;;3.20;1.70;;;9.10;99.90;;;;;;20813706;28;20424;-79
2022/10/09 08:02:54;;;;;;;3.40;2.13;;;9.50;99.90;;;;;;20819194;28;20547;-80
2022/10/09 08:12:55;;;;;;;6.22;1.45;;;10.00;99.90;;;;;;20801468;28;20581;-81
2022/10/09 08:22:56;;;;;;;4.07;1.40;;;10.40;99.90;;;;;;20814092;28;20032;-81
2022/10/09 08:33:01;;;;;;;6.43;1.75;;;10.90;99.90;;;;;;20800155;28;20049;-80
2022/10/09 08:43:06;;;;;;;1.77;0.70;;;11.30;99.90;;;;;;20831199;28;20108;-81
2022/10/09 08:53:22;;;;;;;2.72;1.75;;;11.70;99.90;;;;;;20834975;28;20579;-80
2022/10/09 09:03:38;;;;;;;2.80;1.48;;;11.90;99.90;;;;;;20819314;28;20094;-81
2022/10/09 09:13:47;;;;;;;4.18;2.20;;;12.00;99.90;;;;;;20820386;28;20068;-81
2022/10/09 09:23:48;;;;;;;3.33;1.17;;;12.20;99.90;;;;;;20822302;28;20059;-81
2022/10/09 09:34:04;;;;;;;5.75;1.80;;;12.40;99.90;;;;;;20823355;28;20048;-81
2022/10/09 09:44:10;;;;;;;4.47;2.30;;;12.60;99.90;;;;;;20825317;28;20053;-82
2022/10/09 09:54:21;;;;;;;2.30;1.13;;;12.80;99.90;;;;;;20809559;28;20053;-86
2022/10/09 10:04:27;;;;;;;2.65;0.80;;;13.20;99.90;;;;;;20827673;28;20041;-81
2022/10/09 10:14:29;;;;;;;3.53;1.45;;;13.40;99.90;;;;;;20811223;28;20038;-82
2022/10/09 10:24:40;;;;;;;1.83;0.68;;;13.80;99.90;;;;;;20800833;28;20082;-82
2022/10/09 10:34:47;;;;;;;2.90;1.33;;;13.90;99.90;;;;;;20774546;28;20053;-81
2022/10/09 10:44:55;;;;;;;2.13;0.95;;;14.20;99.90;;;;;;20823310;28;20352;-82
2022/10/09 10:55:50;;;;;;;2.28;1.05;;;14.50;99.90;;;;;;20803865;28;20526;-82
2022/10/09 11:06:16;;;;;;;1.60;1.00;;;14.80;99.90;;;;;;20790090;28;20048;-80
2022/10/09 11:16:42;;;;;;;2.35;1.05;;;15.30;99.90;;;;;;20809460;28;20713;-81
2022/10/09 11:27:03;;;;;;;6.45;1.02;;;16.30;99.90;;;;;;20837336;28;20087;-81
2022/10/09 11:37:11;;;;;;;3.03;0.60;;;17.40;99.90;;;;;;20819610;28;20543;-80
2022/10/09 11:47:27;;;;;;;1.52;0.80;;;17.90;99.90;;;;;;20836414;28;20099;-81
2022/10/09 11:57:29;;;;;;;3.67;0.93;;;18.20;99.90;;;;;;20821139;28;20091;-81
2022/10/09 12:07:36;;;;;;;6.88;1.77;;;18.20;99.90;;;;;;20825776;28;20538;-81
2022/10/09 12:17:47;;;;;;;1.53;0.90;;;18.40;99.70;;;;;;20804001;28;20041;-82
2022/10/09 12:27:53;;;;;;;2.38;1.17;;;18.70;99.30;;;;;;20799889;28;20505;-81
2022/10/09 12:37:54;;;;;;;1.55;0.68;;;18.70;99.20;;;;;;20790230;28;20077;-81
2022/10/09 12:48:08;;;;;;;1.75;0.57;;;19.20;99.40;;;;;;20804547;28;20063;-77
2022/10/09 12:58:24;;;;;;;1.50;0.63;;;19.50;98.70;;;;;;20805451;28;21796;-80
2022/10/09 13:08:32;;;;;;;3.00;0.45;;;18.60;98.40;;;;;;20780484;28;20364;-80
2022/10/09 13:18:33;;;;;;;0.85;0.40;;;18.90;97.80;;;;;;20769858;28;20153;-78
2022/10/09 13:28:34;;;;;;;2.42;0.75;;;19.80;97.90;;;;;;20821229;28;20087;-77
2022/10/09 13:38:35;;;;;;;1.50;0.55;;;19.70;97.90;;;;;;20822843;28;20045;-76
2022/10/09 13:48:37;;;;;;;1.05;0.32;;;20.40;98.40;;;;;;20811755;28;20033;-79
2022/10/09 13:58:38;;;;;;;0.93;0.38;;;20.20;95.20;;;;;;20825189;28;20044;-79
2022/10/09 14:08:39;;;;;;;0.45;0.35;;;20.50;96.90;;;;;;20811850;28;20041;-79
2022/10/09 14:18:40;;;;;;;1.73;0.70;;;20.70;96.20;;;;;;20819000;28;20087;-77
2022/10/09 14:28:41;;;;;;;1.40;0.60;;;19.40;96.90;;;;;;20816653;28;20029;-77
2022/10/09 14:38:42;;;;;;;0.68;0.43;;;19.60;97.30;;;;;;20807478;28;20038;-81
2022/10/09 14:48:44;;;;;;;1.50;0.50;;;19.10;97.60;;;;;;20864798;28;20043;-77
2022/10/09 14:58:46;;;;;;;2.58;1.00;;;18.30;98.70;;;;;;20835957;28;20519;-80
2022/10/09 15:08:47;;;;;;;6.65;2.35;;;17.80;99.00;;;;;;20831788;28;20046;-80
2022/10/09 15:18:50;;;;;;;5.68;0.70;;;17.50;99.50;;;;;;20820352;28;20060;-81
2022/10/09 15:28:51;;;;;;;1.70;0.50;;;17.20;99.90;;;;;;20823442;28;20080;-80
2022/10/09 15:38:52;;;;;;;2.30;0.52;;;16.90;99.90;;;;;;20822774;28;20040;-82
2022/10/09 15:48:54;;;;;;;1.58;0.60;;;16.80;99.90;;;;;;20839379;28;20052;-82
2022/10/09 15:58:56;;;;;;;1.70;0.90;;;16.50;99.90;;;;;;20817295;28;20040;-82
2022/10/09 16:08:58;;;;;;;1.00;0.50;;;16.40;99.90;;;;;;20819311;28;20142;-82
2022/10/09 16:19:01;;;;;;;1.48;0.43;;;16.20;99.90;;;;;;20811720;28;20095;-82
2022/10/09 16:29:02;;;;;;;4.32;1.35;;;16.10;99.90;;;;;;20817827;28;20143;-83
2022/10/09 16:39:04;;;;;;;3.50;0.68;;;15.90;99.90;;;;;;20808099;28;20593;-84
2022/10/09 16:49:05;;;;;;;5.13;0.85;;;15.70;99.90;;;;;;20832253;28;20663;-83
2022/10/09 16:59:12;;;;;;;2.65;0.98;;;15.50;99.90;;;;;;20808794;28;20412;-80
2022/10/09 17:09:13;;;;;;;;;;;15.20;99.90;;;;;;20822384;28;20033;-81
2022/10/09 17:19:14;;;;;;;2.58;0.90;;;15.00;99.90;;;;;;20813898;28;19928;-81
2022/10/09 17:29:16;;;;;;;12.73;1.13;;;14.70;99.90;;;;;;20818276;28;20090;-81
2022/10/09 17:39:17;;;;;;;5.18;1.13;;;14.40;99.90;;;;;;20812653;28;20094;-82
2022/10/09 17:49:18;;;;;;;3.75;1.45;;;14.30;99.90;;;;;;20832493;28;20049;-82
2022/10/09 17:59:19;;;;;;;4.45;1.25;;;14.10;99.90;;;;;;20830975;28;20044;-82
2022/10/09 18:09:20;;;;;;;3.15;1.60;;;14.00;99.90;;;;;;20820575;28;20037;-80
2022/10/09 18:19:21;;;;;;;4.00;1.45;;;13.80;99.90;;;;;;20833682;28;20053;-82
2022/10/09 18:29:22;;;;;;;2.85;1.45;;;13.60;99.90;;;;;;20822935;28;20457;-80
2022/10/09 18:39:23;;;;;;;1.77;1.00;;;13.50;99.90;;;;;;20812684;28;20049;-81
2022/10/09 18:49:28;;;;;;;3.10;1.73;;;13.20;99.90;;;;;;20847089;28;20045;-82
2022/10/09 18:59:30;;;;;;;3.33;1.73;;;13.00;99.90;;;;;;20830985;28;20504;-80
2022/10/09 19:09:31;;;;;;;8.88;2.70;;;12.80;99.90;;;;;;20814722;28;20037;-81
2022/10/09 19:19:32;;;;;;;4.20;2.20;;;12.50;99.90;;;;;;20827629;28;20041;-81
2022/10/09 19:29:36;;;;;;;4.93;3.00;;;12.30;99.90;;;;;;20832946;28;20553;-82
2022/10/09 19:39:37;;;;;;;5.55;2.70;;;12.10;99.90;;;;;;20823365;28;20048;-81
2022/10/09 19:49:38;;;;;;;7.07;2.60;;;11.90;99.90;;;;;;20842305;28;20091;-82
2022/10/09 19:59:39;;;;;;;2.95;1.05;;;11.80;99.90;;;;;;20854955;28;20092;-81
2022/10/09 20:09:40;;;;;;;4.85;2.08;;;11.90;99.90;;;;;;20833335;28;20053;-81
2022/10/09 20:19:43;;;;;;;8.40;3.85;;;12.00;99.90;;;;;;20834970;28;20152;-81
2022/10/09 20:29:44;;;;;;;4.65;2.05;;;12.00;99.90;;;;;;20830969;28;20082;-80
2022/10/09 20:39:45;;;;;;;1.67;0.90;;;11.90;99.90;;;;;;20842433;28;20041;-81
2022/10/09 20:49:47;;;;;;;6.28;1.38;;;12.00;99.90;;;;;;20828214;28;20048;-81
2022/10/09 20:59:48;;;;;;;2.50;0.70;;;12.20;99.90;;;;;;20830017;28;20028;-81
2022/10/09 21:09:49;;;;;;;3.65;2.03;;;12.20;99.90;;;;;;20824564;28;20044;-82
2022/10/09 21:19:50;;;;;;;4.35;1.67;;;12.00;99.90;;;;;;20825262;28;20037;-81
2022/10/09 21:29:51;;;;;;;2.78;1.40;;;11.90;99.90;;;;;;20819776;28;20443;-82
2022/10/09 21:39:52;;;;;;;2.58;1.38;;;11.90;99.90;;;;;;20811044;28;20401;-83
2022/10/09 21:49:53;;;;;;;2.17;1.20;;;11.80;99.90;;;;;;20821833;28;20548;-81
2022/10/09 21:59:54;;;;;;;2.75;1.10;;;11.70;99.90;;;;;;20816313;28;20536;-82
2022/10/09 22:09:55;;;;;;;10.07;2.08;;;11.50;99.90;;;;;;20801762;28;21017;-80
2022/10/09 22:19:56;;;;;;;4.50;1.92;;;11.40;99.90;;;;;;20807092;28;20091;-81
2022/10/09 22:29:57;;;;;;;2.47;1.55;;;11.40;99.90;;;;;;20828326;28;20029;-82
2022/10/09 22:39:58;;;;;;;2.00;1.00;;;11.30;99.90;;;;;;20820487;28;20033;-82
2022/10/09 22:49:59;;;;;;;2.95;1.48;;;11.30;99.90;;;;;;20820918;28;20571;-80
2022/10/09 23:00:00;;;;;;;3.00;1.10;;;11.30;99.90;;;;;;20818204;28;20488;-80
2022/10/09 23:10:02;;;;;;;1.75;0.93;;;11.20;99.90;;;;;;20820167;28;20037;-81
2022/10/09 23:20:03;;;;;;;3.42;1.30;;;11.20;99.90;;;;;;20843888;28;20038;-82
2022/10/09 23:30:05;;;;;;;3.75;1.00;;;11.20;99.90;;;;;;20813471;28;20029;-80
2022/10/09 23:40:06;;;;;;;2.75;1.40;;;11.20;99.90;;;;;;20819074;28;20044;-81
2022/10/09 23:50:07;;;;;;;3.17;1.35;;;11.30;99.90;;;;;;20833025;28;20037;-81
